Time;durP1;ratioP1;P1;durP2;ratioP2;P2;SDS_P1;SDS_P2;PMS_P1;PMS_P2;Temp;Humidity;BMP_temperature;BMP_pressure;BME280_temperature;BME280_humidity;BME280_pressure;Samples;Min_cycle;Max_cycle;Signal;HPM_P1;HPM_P2
2024/01/13 00:01:18;;;;;;;7.35;4.43;;;;;;;3.09;100.00;102667.31;4775863;29;20035;-74
2024/01/13 00:03:44;;;;;;;9.30;4.53;;;;;;;2.97;100.00;102671.25;4780439;29;20047;-76
2024/01/13 00:06:09;;;;;;;7.45;4.80;;;;;;;3.04;100.00;102663.47;4779797;29;20090;-76
2024/01/13 00:08:34;;;;;;;9.02;5.63;;;;;;;3.16;100.00;102660.38;4776535;29;20035;-77
2024/01/13 00:11:00;;;;;;;9.77;5.50;;;;;;;2.86;100.00;102658.56;4775039;29;20043;-76
2024/01/13 00:13:25;;;;;;;8.63;4.65;;;;;;;2.90;100.00;102656.06;4778211;30;20032;-77
2024/01/13 00:15:51;;;;;;;7.32;4.60;;;;;;;2.99;100.00;102657.13;4790748;29;20035;-76
2024/01/13 00:18:18;;;;;;;8.45;5.28;;;;;;;2.87;100.00;102649.16;4777478;29;20039;-76
2024/01/13 00:20:44;;;;;;;8.25;5.30;;;;;;;2.94;100.00;102644.13;4781726;29;20475;-76
2024/01/13 00:23:09;;;;;;;7.35;4.72;;;;;;;2.91;100.00;102647.47;4777397;29;20053;-76
2024/01/13 00:25:35;;;;;;;7.45;4.85;;;;;;;2.93;100.00;102636.97;4780998;29;20035;-76
2024/01/13 00:28:00;;;;;;;7.95;5.43;;;;;;;2.78;100.00;102634.25;4778266;29;20042;-76
2024/01/13 00:30:25;;;;;;;7.55;5.28;;;;;;;2.96;100.00;102627.28;4778817;29;20035;-76
2024/01/13 00:32:50;;;;;;;16.20;5.28;;;;;;;3.03;100.00;102625.00;4778027;29;20039;-76
2024/01/13 00:35:16;;;;;;;9.48;5.32;;;;;;;3.05;100.00;102618.06;4777000;29;20491;-76
2024/01/13 00:37:41;;;;;;;8.32;4.63;;;;;;;3.12;100.00;102614.16;4770980;29;20042;-76
2024/01/13 00:40:07;;;;;;;9.60;5.25;;;;;;;3.07;100.00;102616.97;4782496;29;20054;-76
2024/01/13 00:42:32;;;;;;;7.65;4.68;;;;;;;3.05;100.00;102607.00;4778300;29;20039;-76
2024/01/13 00:44:58;;;;;;;8.68;5.20;;;;;;;2.95;100.00;102607.09;4781738;29;20035;-76
2024/01/13 00:47:23;;;;;;;5.53;4.45;;;;;;;2.98;100.00;102600.97;4783188;29;20827;-76
2024/01/13 00:49:48;;;;;;;7.63;4.00;;;;;;;3.02;100.00;102602.06;4778980;29;20147;-76
2024/01/13 00:52:14;;;;;;;7.38;4.95;;;;;;;2.98;100.00;102595.44;4783485;29;20035;-76
2024/01/13 00:54:42;;;;;;;6.93;5.03;;;;;;;2.93;100.00;102602.94;4781329;29;20624;-76
2024/01/13 00:57:08;;;;;;;6.28;4.13;;;;;;;2.88;100.00;102603.78;4784023;29;20064;-76
2024/01/13 00:59:33;;;;;;;7.03;4.88;;;;;;;2.85;100.00;102602.41;4777049;29;20111;-76
2024/01/13 01:01:58;;;;;;;7.38;4.45;;;;;;;2.82;100.00;102597.44;4779763;29;20043;-76
2024/01/13 01:04:24;;;;;;;8.88;4.90;;;;;;;2.76;100.00;102592.22;4779188;29;20585;-76
2024/01/13 01:06:49;;;;;;;8.45;4.50;;;;;;;2.79;100.00;102586.13;4782632;29;20039;-77
2024/01/13 01:09:14;;;;;;;4.85;4.13;;;;;;;2.74;100.00;102572.31;4783211;29;20708;-77
2024/01/13 01:11:42;;;;;;;6.00;4.22;;;;;;;2.72;100.00;102580.06;4780245;29;20046;-77
2024/01/13 01:14:08;;;;;;;7.78;4.18;;;;;;;2.71;100.00;102579.25;4778121;29;20563;-76
2024/01/13 01:16:33;;;;;;;6.47;4.22;;;;;;;2.75;100.00;102588.63;4785276;29;20023;-75
2024/01/13 01:18:59;;;;;;;8.30;4.63;;;;;;;2.91;100.00;102580.25;4784552;29;20064;-73
2024/01/13 01:21:24;;;;;;;6.40;4.38;;;;;;;2.88;100.00;102573.34;4785270;29;20074;-74
2024/01/13 01:23:49;;;;;;;7.22;4.82;;;;;;;2.88;100.00;102567.00;4783106;29;20043;-75
2024/01/13 01:26:15;;;;;;;7.03;4.32;;;;;;;2.99;100.00;102569.44;4783040;29;20399;-75
2024/01/13 01:28:40;;;;;;;7.30;4.80;;;;;;;2.79;100.00;102569.53;4784335;29;20678;-73
2024/01/13 01:31:06;;;;;;;5.70;3.97;;;;;;;2.84;100.00;102573.09;4777782;29;20039;-73
2024/01/13 01:33:32;;;;;;;5.38;4.25;;;;;;;2.83;100.00;102567.88;4783196;29;20071;-75
2024/01/13 01:35:57;;;;;;;6.88;4.88;;;;;;;2.79;100.00;102564.81;4778852;29;20028;-73
2024/01/13 01:38:22;;;;;;;5.40;4.35;;;;;;;2.78;100.00;102556.81;4783672;29;20039;-76
2024/01/13 01:40:55;;;;;;;6.30;4.32;;;;;;;2.72;100.00;102552.41;4779965;29;22461;-75
2024/01/13 01:43:21;;;;;;;9.30;5.68;;;;;;;2.65;100.00;102542.47;4776666;29;20045;-78
2024/01/13 01:45:54;;;;;;;8.93;4.85;;;;;;;2.65;100.00;102542.47;4781590;29;20395;-75
2024/01/13 01:48:25;;;;;;;;;;;;;;;2.67;100.00;102544.16;4782487;29;20122;-72
2024/01/13 01:50:51;;;;;;;6.45;4.80;;;;;;;2.75;100.00;102543.56;4779253;29;19926;-73
2024/01/13 01:53:16;;;;;;;11.98;5.53;;;;;;;2.63;100.00;102536.41;4782713;29;20042;-75
2024/01/13 01:55:42;;;;;;;8.50;5.50;;;;;;;2.67;100.00;102522.03;4778515;29;20050;-74
2024/01/13 01:58:07;;;;;;;7.03;4.82;;;;;;;2.76;100.00;102523.06;4777559;29;20059;-75
2024/01/13 02:00:33;;;;;;;7.45;4.82;;;;;;;2.83;100.00;102523.63;4779858;29;20035;-74
2024/01/13 02:02:58;;;;;;;8.70;4.80;;;;;;;2.80;100.00;102521.41;4781462;29;20035;-74
2024/01/13 02:05:24;;;;;;;8.35;4.65;;;;;;;2.78;100.00;102513.41;4781898;29;20409;-73
2024/01/13 02:07:50;;;;;;;7.25;4.65;;;;;;;2.83;100.00;102512.56;4781184;29;20092;-73
2024/01/13 02:10:19;;;;;;;9.77;5.57;;;;;;;2.78;100.00;102499.59;4776667;29;20109;-74
2024/01/13 02:12:45;;;;;;;11.07;5.82;;;;;;;2.87;100.00;102498.97;4783982;29;20035;-76
2024/01/13 02:15:11;;;;;;;7.55;4.85;;;;;;;2.72;100.00;102494.34;4782672;29;20031;-73
2024/01/13 02:17:37;;;;;;;8.68;5.53;;;;;;;2.68;100.00;102490.50;4782886;29;20054;-77
2024/01/13 02:20:05;;;;;;;10.40;5.45;;;;;;;2.77;100.00;102483.28;4778654;29;20043;-77
2024/01/13 02:22:31;;;;;;;10.23;5.95;;;;;;;2.77;100.00;102474.97;4784065;30;20058;-77
2024/01/13 02:24:58;;;;;;;8.05;4.88;;;;;;;2.67;100.00;102484.13;4784359;29;20091;-76
2024/01/13 02:27:23;;;;;;;11.40;5.40;;;;;;;2.58;100.00;102470.09;4782126;29;20047;-77
2024/01/13 02:29:49;;;;;;;8.20;4.57;;;;;;;2.65;100.00;102470.59;4776776;29;20495;-77
2024/01/13 02:32:14;;;;;;;8.77;5.65;;;;;;;2.62;100.00;102468.41;4783401;29;20497;-76
2024/01/13 02:34:39;;;;;;;10.93;5.25;;;;;;;2.61;100.00;102461.25;4783873;29;20072;-77
2024/01/13 02:37:05;;;;;;;9.18;5.75;;;;;;;2.59;100.00;102460.72;4780504;29;20023;-78
2024/01/13 02:39:30;;;;;;;11.73;6.13;;;;;;;2.72;100.00;102458.41;4782456;29;20051;-77
2024/01/13 02:41:55;;;;;;;10.57;5.72;;;;;;;2.76;100.00;102467.78;4781180;29;20089;-78
2024/01/13 02:44:22;;;;;;;10.27;6.03;;;;;;;2.80;100.00;102457.78;4780949;30;20050;-78
2024/01/13 02:46:48;;;;;;;10.57;5.72;;;;;;;2.77;100.00;102450.91;4777101;29;20463;-77
2024/01/13 02:49:14;;;;;;;9.82;6.03;;;;;;;2.65;100.00;102451.25;4774620;29;20174;-78
2024/01/13 02:51:39;;;;;;;11.10;6.13;;;;;;;2.62;100.00;102438.00;4781940;29;20411;-77
2024/01/13 02:54:04;;;;;;;12.57;6.05;;;;;;;2.72;100.00;102437.13;4779429;29;20065;-77
2024/01/13 02:56:31;;;;;;;10.70;6.63;;;;;;;2.77;100.00;102431.56;4776287;29;20383;-77
2024/01/13 02:58:56;;;;;;;16.05;8.13;;;;;;;2.75;100.00;102424.66;4777359;29;20043;-77
2024/01/13 03:01:22;;;;;;;18.48;7.25;;;;;;;2.76;100.00;102423.53;4780039;29;20039;-77
2024/01/13 03:03:49;;;;;;;16.85;8.65;;;;;;;2.76;100.00;102418.00;4782755;29;20431;-77
2024/01/13 03:06:14;;;;;;;16.33;7.57;;;;;;;2.73;100.00;102413.06;4780844;30;20031;-77
2024/01/13 03:08:39;;;;;;;17.35;8.13;;;;;;;2.67;100.00;102415.03;4780504;29;20388;-78
2024/01/13 03:11:05;;;;;;;12.68;7.40;;;;;;;2.62;100.00;102418.66;4780184;29;20035;-78
2024/01/13 03:13:30;;;;;;;16.42;8.48;;;;;;;2.71;100.00;102415.28;4777107;29;20034;-77
2024/01/13 03:15:55;;;;;;;17.40;8.18;;;;;;;2.70;100.00;102405.31;4768751;29;20075;-76
2024/01/13 03:18:21;;;;;;;15.30;7.93;;;;;;;2.69;100.00;102403.69;4780880;29;20031;-77
2024/01/13 03:20:46;;;;;;;15.38;9.40;;;;;;;2.76;100.00;102395.88;4779714;29;20047;-77
2024/01/13 03:23:11;;;;;;;19.00;9.77;;;;;;;2.72;100.00;102387.34;4781949;30;20031;-77
2024/01/13 03:25:37;;;;;;;17.80;8.88;;;;;;;2.69;100.00;102389.88;4783936;29;20036;-78
2024/01/13 03:28:03;;;;;;;20.35;10.18;;;;;;;2.68;100.00;102388.19;4780879;29;20100;-73
2024/01/13 03:30:29;;;;;;;23.25;11.30;;;;;;;2.63;100.00;102387.13;4776371;29;20862;-73
2024/01/13 03:32:54;;;;;;;25.88;10.80;;;;;;;2.64;100.00;102374.97;4775379;29;20039;-76
2024/01/13 03:35:19;;;;;;;19.58;8.98;;;;;;;2.67;100.00;102369.97;4782408;29;20080;-74
2024/01/13 03:37:45;;;;;;;25.48;11.73;;;;;;;2.67;100.00;102367.19;4780382;29;20578;-75
2024/01/13 03:40:10;;;;;;;25.75;11.35;;;;;;;2.67;100.00;102370.78;4792199;29;20463;-73
2024/01/13 03:42:35;;;;;;;25.73;13.80;;;;;;;2.67;100.00;102369.97;4775612;29;20605;-73
2024/01/13 03:45:01;;;;;;;30.67;13.80;;;;;;;2.65;100.00;102376.59;4773295;29;20027;-74
2024/01/13 03:47:26;;;;;;;29.33;12.85;;;;;;;2.69;100.00;102370.50;4777731;29;20369;-73
2024/01/13 03:49:51;;;;;;;23.98;10.65;;;;;;;2.57;100.00;102368.94;4770546;30;20525;-74
2024/01/13 03:52:17;;;;;;;22.67;11.02;;;;;;;2.67;100.00;102367.19;4781358;29;20073;-73
2024/01/13 03:54:42;;;;;;;23.15;10.82;;;;;;;2.73;100.00;102366.06;4781256;29;20031;-75
2024/01/13 03:57:07;;;;;;;24.00;12.75;;;;;;;2.80;100.00;102366.53;4772336;29;20086;-76
2024/01/13 03:59:33;;;;;;;22.83;11.13;;;;;;;2.79;100.00;102364.91;4778873;29;20036;-75
2024/01/13 04:01:58;;;;;;;22.17;11.73;;;;;;;2.79;100.00;102365.72;4777115;29;20031;-74
2024/01/13 04:04:23;;;;;;;27.30;12.65;;;;;;;2.90;100.00;102366.47;4779772;29;20059;-74
2024/01/13 04:06:49;;;;;;;27.70;14.10;;;;;;;3.05;100.00;102363.56;4777267;29;20134;-73
2024/01/13 04:09:14;;;;;;;25.52;12.75;;;;;;;2.82;100.00;102365.13;4776879;29;20368;-74
2024/01/13 04:11:40;;;;;;;26.55;11.40;;;;;;;2.75;100.00;102359.13;4777374;29;20526;-74
2024/01/13 04:14:05;;;;;;;26.45;12.23;;;;;;;2.83;100.00;102357.69;4780083;29;20051;-73
2024/01/13 04:16:30;;;;;;;22.30;11.05;;;;;;;2.77;100.00;102350.53;4782724;29;20117;-74
2024/01/13 04:18:56;;;;;;;24.98;10.25;;;;;;;2.81;100.00;102351.63;4784835;29;20038;-73
2024/01/13 04:21:21;;;;;;;19.42;9.65;;;;;;;2.84;100.00;102357.38;4779299;29;20030;-73
2024/01/13 04:23:46;;;;;;;18.02;8.68;;;;;;;2.85;100.00;102355.44;4781601;29;20035;-73
2024/01/13 04:26:12;;;;;;;20.15;10.60;;;;;;;2.82;100.00;102353.25;4781681;29;20043;-74
2024/01/13 04:28:38;;;;;;;19.67;10.05;;;;;;;2.78;100.00;102346.66;4782978;29;20064;-73
2024/01/13 04:31:04;;;;;;;19.48;9.80;;;;;;;2.69;100.00;102349.22;4782838;29;20084;-75
2024/01/13 04:33:30;;;;;;;18.45;9.25;;;;;;;2.82;100.00;102347.72;4781553;29;20039;-75
2024/01/13 04:35:55;;;;;;;16.75;8.52;;;;;;;2.81;100.00;102348.84;4782799;29;20418;-76
2024/01/13 04:38:20;;;;;;;20.65;9.45;;;;;;;2.91;100.00;102354.31;4782965;29;20066;-77
2024/01/13 04:40:47;;;;;;;20.13;9.65;;;;;;;2.90;100.00;102355.41;4783010;30;20447;-77
2024/01/13 04:43:13;;;;;;;18.27;8.88;;;;;;;2.81;100.00;102354.38;4783820;29;20035;-77
2024/01/13 04:45:38;;;;;;;13.10;7.80;;;;;;;2.80;100.00;102352.72;4779199;29;20130;-78
2024/01/13 04:48:04;;;;;;;18.67;8.10;;;;;;;2.74;100.00;102351.94;4777620;29;20142;-76
2024/01/13 04:50:30;;;;;;;16.08;8.32;;;;;;;2.73;100.00;102347.53;4778516;29;20027;-77
2024/01/13 04:52:55;;;;;;;20.25;9.75;;;;;;;2.77;100.00;102339.47;4781833;29;20035;-77
2024/01/13 04:55:20;;;;;;;16.70;8.68;;;;;;;2.78;100.00;102346.66;4775239;29;20031;-76
2024/01/13 04:57:46;;;;;;;13.50;7.40;;;;;;;2.79;100.00;102342.78;4780905;29;20039;-76
2024/01/13 05:00:12;;;;;;;15.52;8.50;;;;;;;2.73;100.00;102338.41;4784599;29;20085;-76
2024/01/13 05:02:38;;;;;;;13.15;6.80;;;;;;;2.70;100.00;102336.19;4781933;30;20035;-76
2024/01/13 05:05:03;;;;;;;18.13;8.10;;;;;;;2.68;100.00;102319.91;4780719;29;20067;-77
2024/01/13 05:07:29;;;;;;;14.88;6.80;;;;;;;2.79;100.00;102309.59;4781045;29;20031;-76
2024/01/13 05:09:54;;;;;;;14.02;5.88;;;;;;;2.68;100.00;102308.88;4778813;29;20786;-77
2024/01/13 05:12:19;;;;;;;16.42;6.93;;;;;;;2.73;100.00;102297.75;4779943;30;20465;-76
2024/01/13 05:14:46;;;;;;;13.38;6.32;;;;;;;2.73;100.00;102283.91;4779542;29;20051;-76
2024/01/13 05:17:11;;;;;;;12.48;7.97;;;;;;;2.64;100.00;102269.91;4778818;29;20081;-77
2024/01/13 05:19:37;;;;;;;9.95;5.78;;;;;;;2.69;100.00;102266.25;4781771;29;20579;-76
2024/01/13 05:22:02;;;;;;;19.73;8.88;;;;;;;2.65;100.00;102259.66;4781486;29;20027;-77
2024/01/13 05:24:28;;;;;;;12.27;5.60;;;;;;;2.72;100.00;102253.78;4775130;29;20044;-76
2024/01/13 05:26:54;;;;;;;8.88;4.65;;;;;;;2.72;100.00;102270.38;4780086;29;20031;-76
2024/01/13 05:29:19;;;;;;;15.10;6.97;;;;;;;2.81;100.00;102276.94;4781037;29;20508;-76
2024/01/13 05:31:47;;;;;;;10.90;6.13;;;;;;;2.87;100.00;102280.47;4780783;29;20062;-76
2024/01/13 05:34:13;;;;;;;12.55;5.85;;;;;;;2.91;100.00;102296.22;4780279;29;20108;-76
2024/01/13 05:36:38;;;;;;;11.32;5.78;;;;;;;2.98;100.00;102306.94;4778192;29;20027;-77
2024/01/13 05:39:03;;;;;;;14.43;6.55;;;;;;;2.96;100.00;102315.50;4778615;29;20063;-77
2024/01/13 05:41:28;;;;;;;10.05;5.88;;;;;;;3.03;100.00;102321.53;4777813;29;20495;-77
2024/01/13 05:43:54;;;;;;;11.27;5.50;;;;;;;2.98;100.00;102316.06;4791180;29;20082;-76
2024/01/13 05:46:19;;;;;;;9.40;5.07;;;;;;;2.93;100.00;102304.19;4782300;29;20479;-76
2024/01/13 05:48:44;;;;;;;13.20;5.88;;;;;;;2.80;100.00;102301.03;4772401;29;20083;-76
2024/01/13 05:51:10;;;;;;;11.02;5.65;;;;;;;2.87;100.00;102299.84;4779925;29;20035;-76
2024/01/13 05:53:37;;;;;;;12.32;5.90;;;;;;;2.93;100.00;102296.75;4779848;29;20248;-76
2024/01/13 05:56:03;;;;;;;10.15;5.50;;;;;;;2.84;100.00;102268.06;4781017;29;20114;-76
2024/01/13 05:58:28;;;;;;;8.50;4.93;;;;;;;2.84;100.00;102252.28;4785035;29;20035;-76
2024/01/13 06:00:54;;;;;;;9.75;4.57;;;;;;;2.80;100.00;102228.28;4783651;29;20045;-78
2024/01/13 06:03:19;;;;;;;10.07;5.05;;;;;;;2.80;100.00;102222.75;4784540;29;20032;-78
2024/01/13 06:05:44;;;;;;;9.27;4.90;;;;;;;2.75;100.00;102215.34;4780406;30;20043;-79
2024/01/13 06:08:10;;;;;;;8.10;4.70;;;;;;;2.75;100.00;102206.22;4779278;29;20039;-78
2024/01/13 06:10:35;;;;;;;11.43;4.93;;;;;;;2.75;100.00;102186.88;4778007;29;20039;-79
2024/01/13 06:13:01;;;;;;;9.20;4.53;;;;;;;2.73;100.00;102183.56;4781630;29;20172;-78
2024/01/13 06:15:28;;;;;;;11.68;5.25;;;;;;;2.80;100.00;102184.03;4786726;29;20383;-78
2024/01/13 06:17:53;;;;;;;11.52;5.53;;;;;;;2.85;100.00;102186.75;4780576;30;20455;-78
2024/01/13 06:20:18;;;;;;;12.90;5.60;;;;;;;2.83;100.00;102195.34;4782710;29;20046;-79
2024/01/13 06:22:44;;;;;;;10.32;6.25;;;;;;;2.75;100.00;102197.94;4783174;29;20517;-77
2024/01/13 06:25:09;;;;;;;10.05;6.47;;;;;;;2.81;100.00;102207.81;4783161;29;20047;-78
2024/01/13 06:27:34;;;;;;;14.40;7.35;;;;;;;2.82;100.00;102212.22;4784471;29;20069;-78
2024/01/13 06:30:00;;;;;;;13.50;7.97;;;;;;;2.87;100.00;102203.03;4781472;29;20035;-77
2024/01/13 06:32:25;;;;;;;16.98;8.23;;;;;;;2.87;100.00;102195.59;4784675;30;20046;-78
2024/01/13 06:34:50;;;;;;;15.85;8.02;;;;;;;2.97;100.00;102184.41;4779125;29;20098;-78
2024/01/13 06:37:16;;;;;;;16.13;8.13;;;;;;;2.88;100.00;102180.63;4779103;29;20437;-78
2024/01/13 06:39:41;;;;;;;15.45;7.88;;;;;;;2.86;100.00;102182.84;4782149;29;20503;-78
2024/01/13 06:42:08;;;;;;;19.88;8.48;;;;;;;2.89;100.00;102179.53;4781578;29;20039;-77
2024/01/13 06:44:33;;;;;;;14.15;8.52;;;;;;;2.81;100.00;102150.56;4782137;29;20510;-78
2024/01/13 06:46:59;;;;;;;16.08;8.10;;;;;;;2.85;100.00;102142.50;4781455;29;20590;-79
2024/01/13 06:49:24;;;;;;;13.15;7.30;;;;;;;2.85;100.00;102142.50;4782605;29;20116;-77
2024/01/13 06:51:49;;;;;;;14.55;6.95;;;;;;;2.87;100.00;102139.44;4781104;29;20119;-77
2024/01/13 06:54:15;;;;;;;13.80;7.40;;;;;;;2.88;100.00;102133.63;4779033;29;20065;-78
2024/01/13 06:56:41;;;;;;;13.38;7.05;;;;;;;2.84;100.00;102119.53;4782118;29;20019;-77
2024/01/13 06:59:07;;;;;;;11.55;6.07;;;;;;;2.88;100.00;102130.84;4780249;29;20066;-74
2024/01/13 07:01:33;;;;;;;12.52;6.20;;;;;;;2.87;100.00;102129.22;4776971;29;20097;-74
2024/01/13 07:03:58;;;;;;;12.95;5.80;;;;;;;2.88;100.00;102114.25;4780833;29;20398;-74
2024/01/13 07:06:24;;;;;;;9.43;5.45;;;;;;;2.88;100.00;102124.50;4775748;29;20148;-78
2024/01/13 07:08:49;;;;;;;11.15;6.40;;;;;;;2.86;100.00;102138.63;4775842;29;20073;-76
2024/01/13 07:11:15;;;;;;;13.10;6.32;;;;;;;2.90;100.00;102136.91;4775018;29;20044;-77
2024/01/13 07:13:42;;;;;;;12.27;6.95;;;;;;;2.91;100.00;102130.28;4775930;29;20264;-77
2024/01/13 07:16:07;;;;;;;13.75;6.68;;;;;;;2.93;100.00;102125.28;4771289;29;20084;-76
2024/01/13 07:18:32;;;;;;;11.23;6.57;;;;;;;2.92;100.00;102131.91;4783068;29;20078;-76
2024/01/13 07:20:58;;;;;;;14.10;6.97;;;;;;;2.91;100.00;102124.75;4778557;29;20134;-77
2024/01/13 07:23:23;;;;;;;13.73;6.55;;;;;;;2.91;100.00;102119.22;4780836;29;20035;-76
2024/01/13 07:25:48;;;;;;;12.15;7.47;;;;;;;2.98;100.00;102125.19;4781112;29;20088;-76
2024/01/13 07:28:14;;;;;;;13.45;7.40;;;;;;;3.00;100.00;102128.50;4776311;29;20475;-76
2024/01/13 07:30:39;;;;;;;13.05;6.53;;;;;;;3.01;100.00;102119.06;4775534;29;20069;-76
2024/01/13 07:33:04;;;;;;;13.68;7.65;;;;;;;3.03;100.00;102110.47;4776664;29;20047;-76
2024/01/13 07:35:30;;;;;;;12.40;7.13;;;;;;;3.01;100.00;102105.22;4782409;29;20046;-76
2024/01/13 07:37:55;;;;;;;9.73;6.22;;;;;;;3.00;100.00;102111.91;4781122;29;20043;-76
2024/01/13 07:40:20;;;;;;;12.18;6.28;;;;;;;2.99;100.00;102124.09;4783242;29;20043;-76
2024/01/13 07:42:46;;;;;;;12.68;7.53;;;;;;;2.97;100.00;102115.25;4777239;29;20515;-76
2024/01/13 07:45:12;;;;;;;14.18;6.93;;;;;;;2.94;100.00;102115.84;4777455;29;20042;-76
2024/01/13 07:47:38;;;;;;;12.25;7.00;;;;;;;2.90;100.00;102128.59;4781814;29;20038;-76
2024/01/13 07:50:04;;;;;;;16.13;7.70;;;;;;;2.99;100.00;102123.25;4785840;29;20039;-76
2024/01/13 07:52:29;;;;;;;10.20;6.68;;;;;;;2.97;100.00;102106.97;4777185;29;20039;-76
2024/01/13 07:54:55;;;;;;;9.98;6.30;;;;;;;2.96;100.00;102110.84;4779269;29;20201;-76
2024/01/13 07:57:20;;;;;;;12.40;6.72;;;;;;;2.93;100.00;102105.91;4774693;29;20035;-76
2024/01/13 07:59:45;;;;;;;12.95;6.55;;;;;;;2.95;100.00;102106.44;4778226;29;20039;-76
2024/01/13 08:02:11;;;;;;;10.65;6.10;;;;;;;2.98;100.00;102108.59;4781889;29;20047;-76
2024/01/13 08:04:36;;;;;;;19.70;9.35;;;;;;;3.02;100.00;102115.19;4793915;29;20035;-76
2024/01/13 08:07:01;;;;;;;15.50;8.60;;;;;;;2.96;100.00;102104.50;4782333;29;20096;-76
2024/01/13 08:09:27;;;;;;;15.68;8.25;;;;;;;3.00;100.00;102100.81;4785162;29;20031;-76
2024/01/13 08:11:52;;;;;;;15.57;9.00;;;;;;;2.99;100.00;102104.72;4781303;29;20042;-76
2024/01/13 08:14:17;;;;;;;24.63;13.38;;;;;;;3.02;100.00;102117.94;4779719;29;20118;-76
2024/01/13 08:16:43;;;;;;;17.90;9.88;;;;;;;3.08;100.00;102117.88;4774739;29;20066;-75
2024/01/13 08:19:10;;;;;;;47.97;27.88;;;;;;;3.13;100.00;102115.06;4778280;29;20035;-76
2024/01/13 08:21:35;;;;;;;24.38;13.43;;;;;;;3.09;100.00;102116.78;4775691;29;20161;-76
2024/01/13 08:24:01;;;;;;;31.80;19.23;;;;;;;3.11;100.00;102115.34;4785621;29;20538;-76
2024/01/13 08:26:29;;;;;;;14.80;8.30;;;;;;;3.14;100.00;102116.69;4777373;29;20031;-76
2024/01/13 08:28:55;;;;;;;23.00;13.23;;;;;;;3.16;100.00;102119.97;4773836;29;20051;-76
2024/01/13 08:31:20;;;;;;;20.00;10.10;;;;;;;3.18;100.00;102124.13;4776782;29;20079;-76
2024/01/13 08:33:46;;;;;;;14.35;8.65;;;;;;;3.17;100.00;102122.47;4779375;29;20077;-76
2024/01/13 08:36:11;;;;;;;15.90;9.55;;;;;;;3.22;100.00;102110.50;4777431;30;20031;-76
2024/01/13 08:38:37;;;;;;;13.02;7.78;;;;;;;3.18;100.00;102103.91;4779089;30;20448;-76
2024/01/13 08:41:02;;;;;;;9.18;6.22;;;;;;;3.15;100.00;102096.22;4773592;29;20039;-76
2024/01/13 08:43:28;;;;;;;11.45;7.10;;;;;;;3.16;100.00;102106.16;4776370;29;20039;-75
2024/01/13 08:45:53;;;;;;;11.35;6.45;;;;;;;3.21;100.00;102101.38;4775557;29;20100;-75
2024/01/13 08:48:18;;;;;;;11.80;6.45;;;;;;;3.21;100.00;102095.84;4776649;29;20051;-76
2024/01/13 08:50:44;;;;;;;16.10;8.60;;;;;;;3.22;100.00;102100.25;4792253;29;20066;-75
2024/01/13 08:53:09;;;;;;;13.23;8.23;;;;;;;3.23;100.00;102095.56;4770658;29;20065;-76
2024/01/13 08:55:34;;;;;;;14.85;7.53;;;;;;;3.30;100.00;102093.22;4774106;29;20063;-75
2024/01/13 08:58:00;;;;;;;9.30;6.32;;;;;;;3.28;100.00;102089.94;4772445;29;20145;-75
2024/01/13 09:00:25;;;;;;;13.95;6.63;;;;;;;3.25;100.00;102083.06;4772560;29;20135;-77
2024/01/13 09:02:50;;;;;;;20.77;8.38;;;;;;;3.26;100.00;102083.88;4772449;29;20107;-75
2024/01/13 09:05:16;;;;;;;13.23;6.80;;;;;;;3.30;100.00;102079.38;4779316;29;20055;-75
2024/01/13 09:07:41;;;;;;;17.13;8.43;;;;;;;3.25;100.00;102077.53;4779896;29;20031;-75
2024/01/13 09:10:07;;;;;;;18.75;10.43;;;;;;;3.25;100.00;102082.25;4774745;29;20489;-75
2024/01/13 09:12:32;;;;;;;20.27;10.30;;;;;;;3.30;100.00;102075.81;4777387;29;20456;-77
2024/01/13 09:14:58;;;;;;;17.85;10.27;;;;;;;3.30;100.00;102070.28;4782237;29;20126;-76
2024/01/13 09:17:23;;;;;;;22.20;10.70;;;;;;;3.28;100.00;102073.34;4774889;29;20566;-76
2024/01/13 09:19:48;;;;;;;26.25;13.75;;;;;;;3.35;100.00;102062.72;4777136;30;20047;-74
2024/01/13 09:22:14;;;;;;;22.30;11.38;;;;;;;3.33;100.00;102062.19;4780630;29;20062;-73
2024/01/13 09:24:43;;;;;;;20.73;10.27;;;;;;;3.33;100.00;102058.59;4775546;29;20035;-76
2024/01/13 09:27:08;;;;;;;17.42;9.35;;;;;;;3.31;100.00;102058.91;4777310;29;20132;-79
2024/01/13 09:29:34;;;;;;;19.75;10.07;;;;;;;3.40;100.00;102064.59;4779698;29;20500;-76
2024/01/13 09:31:59;;;;;;;25.50;11.25;;;;;;;3.32;100.00;102063.31;4778849;29;20547;-76
2024/01/13 09:34:25;;;;;;;17.85;10.77;;;;;;;3.36;100.00;102064.34;4776617;29;20043;-76
2024/01/13 09:36:51;;;;;;;21.58;9.65;;;;;;;3.32;100.00;102057.78;4775976;29;20505;-77
2024/01/13 09:39:16;;;;;;;25.02;9.98;;;;;;;3.39;100.00;102049.09;4777261;29;20050;-76
2024/01/13 09:41:43;;;;;;;17.40;9.63;;;;;;;3.32;100.00;102052.25;4772998;29;20169;-77
2024/01/13 09:44:23;;;;;;;23.83;10.40;;;;;;;3.24;100.00;102044.63;4783616;29;20046;-77
2024/01/13 09:46:54;;;;;;;17.90;9.68;;;;;;;3.31;100.00;102050.63;4772432;29;20032;-77
2024/01/13 09:49:20;;;;;;;16.77;7.88;;;;;;;3.28;100.00;102050.38;4772311;29;20058;-77
2024/01/13 09:51:46;;;;;;;22.13;10.35;;;;;;;3.32;100.00;102046.72;4773750;29;20027;-76
2024/01/13 09:54:20;;;;;;;16.80;9.45;;;;;;;3.35;100.00;102048.03;4775000;29;20043;-78
2024/01/13 09:56:47;;;;;;;19.70;10.00;;;;;;;3.42;100.00;102049.31;4777154;29;20031;-78
2024/01/13 09:59:13;;;;;;;28.50;13.38;;;;;;;3.41;100.00;102039.34;4779218;29;20050;-77
2024/01/13 10:01:39;;;;;;;32.47;13.40;;;;;;;3.39;100.00;102041.59;4775794;29;20028;-76
2024/01/13 10:04:07;;;;;;;30.05;13.93;;;;;;;3.42;100.00;102034.66;4768212;29;20039;-77
2024/01/13 10:06:33;;;;;;;31.30;15.63;;;;;;;3.40;100.00;102037.72;4788610;29;20028;-78
2024/01/13 10:08:59;;;;;;;36.80;13.75;;;;;;;3.39;100.00;102036.06;4774380;29;20439;-79
2024/01/13 10:11:25;;;;;;;32.20;14.07;;;;;;;3.37;100.00;102027.28;4773351;29;20035;-78
2024/01/13 10:14:00;;;;;;;33.80;14.52;;;;;;;3.31;100.00;102031.25;4776024;29;20564;-78
2024/01/13 10:16:28;;;;;;;31.52;14.55;;;;;;;3.38;100.00;102012.28;4778593;29;20089;-79
2024/01/13 10:18:53;;;;;;;38.67;16.58;;;;;;;3.41;100.00;102022.75;4771935;29;20047;-77
2024/01/13 10:21:19;;;;;;;33.42;16.40;;;;;;;3.37;100.00;102021.75;4774464;29;20035;-78
2024/01/13 10:23:44;;;;;;;36.15;17.42;;;;;;;3.41;100.00;102019.16;4771836;29;20118;-76
2024/01/13 10:26:10;;;;;;;38.95;17.35;;;;;;;3.42;100.00;102016.09;4773347;29;20576;-77
2024/01/13 10:28:36;;;;;;;38.83;17.52;;;;;;;3.43;100.00;102012.19;4774974;29;20388;-77
2024/01/13 10:31:02;;;;;;;40.90;16.65;;;;;;;3.40;100.00;102007.28;4777983;29;20449;-77
2024/01/13 10:33:29;;;;;;;42.92;16.70;;;;;;;3.46;100.00;102013.56;4780625;30;20035;-78
2024/01/13 10:35:54;;;;;;;35.28;16.50;;;;;;;3.55;100.00;102013.69;4777260;29;20620;-78
2024/01/13 10:38:20;;;;;;;47.60;18.98;;;;;;;3.39;100.00;102019.47;4774416;29;20112;-73
2024/01/13 10:40:45;;;;;;;41.47;18.10;;;;;;;3.46;100.00;102003.31;4777386;29;20056;-74
2024/01/13 10:43:13;;;;;;;50.35;19.50;;;;;;;3.37;100.00;102005.13;4778893;29;20042;-74
2024/01/13 10:45:41;;;;;;;36.30;17.08;;;;;;;3.33;100.00;101998.56;4776700;29;20153;-73
2024/01/13 10:48:16;;;;;;;43.70;19.90;;;;;;;3.32;100.00;101991.34;4778127;29;20051;-74
2024/01/13 10:50:45;;;;;;;47.88;19.35;;;;;;;3.33;100.00;101989.41;4778781;29;20110;-72
2024/01/13 10:53:24;;;;;;;41.58;19.33;;;;;;;3.40;100.00;101985.13;4778544;30;20035;-74
2024/01/13 10:55:50;;;;;;;41.70;19.38;;;;;;;3.37;100.00;101976.59;4774698;29;20066;-73
2024/01/13 10:58:18;;;;;;;43.97;17.88;;;;;;;3.42;100.00;101971.81;4780450;29;20069;-74
2024/01/13 11:00:43;;;;;;;51.03;21.92;;;;;;;3.36;100.00;101975.78;4783540;30;20039;-73
2024/01/13 11:03:12;;;;;;;51.78;23.75;;;;;;;3.44;100.00;101957.69;4778789;29;20452;-74
2024/01/13 11:05:37;;;;;;;49.08;23.05;;;;;;;3.44;100.00;101954.91;4787590;29;20379;-75
2024/01/13 11:08:04;;;;;;;44.88;21.52;;;;;;;3.45;100.00;101956.53;4780285;29;20069;-73
2024/01/13 11:10:37;;;;;;;58.38;23.10;;;;;;;3.43;100.00;101956.84;4780240;29;20188;-73